ΕΜΥ, Εθνική Μετεωρολογική Υπηρεσία - Δελτία Καιρού, Προγνώσεις

ΑΕΡΟΝΑΥΤΙΛΙΑ

GREEK AIRPORTS CODES

LGML 190900Z 02013KT 9999 FEW018 SCT025 09/00 Q1030 RMK BKN080=

EUROPEAN AIRPORTS CODES

LKPR 190930Z 20006KT 130V230 9999 OVC009 M00/M02 Q1027 NOSIG=